KSBD/SBD METAR and TAF weather

Enter ICAO airport designator
Station Type Date Time Source
KSBD METAR 2022/10/01 09:00 UTC NOAA

KSBD 010900Z AUTO 26003KT 10SM BKN015 17/13 A2988 RMK AO2 T01700132


Station Type Date Time Source
KSBD Decoded METAR 2022/10/01 09:00 UTC NOAA

Norton Air Force Base / San Bern, CA, United States (KSBD) 34-06N 117-14W
Oct 01, 2022 - 05:00 AM EDT / 2022.10.01 0900 UTC
Wind: from the W (260 degrees) at 3 MPH (3 KT):0
Visibility: 10 mile(s):0
Sky conditions: mostly cloudy
Temperature: 62.6 F (17.0 C)
Dew Point: 55.8 F (13.2 C)
Relative Humidity: 78%
Pressure (altimeter): 29.88 in. Hg (1011 hPa)
ob: KSBD 010900Z AUTO 26003KT 10SM BKN015 17/13 A2988 RMK AO2 T01700132
cycle: 9

Station Type Date Time Source
KSBD TAF 2022/10/01 06:22 UTC NOAA

TAF KSBD 010520Z 0106/0206 VRB04KT P6SM SKC
FM011200 VRB04KT 3SM BR BKN008
FM011600 VRB04KT 5SM HZ FEW010
FM012000 25010KT P6SM SKC
FM020400 VRB04KT P6SM SKC

Example: see airport list